createdAt,value
2022-08-04T03:45:20.530Z,64.13
2022-08-04T03:48:15.511Z,63.97
2022-08-04T03:51:10.694Z,63.50
2022-08-04T03:54:23.227Z,63.06
2022-08-04T03:57:07.724Z,62.58
2022-08-04T04:00:09.412Z,62.06
2022-08-04T04:03:23.572Z,62.09
2022-08-04T04:06:53.981Z,62.30
2022-08-04T04:09:57.021Z,61.85
2022-08-04T04:13:04.529Z,61.63
2022-08-04T04:16:01.903Z,60.64
2022-08-04T04:18:53.976Z,60.33
2022-08-04T04:21:36.829Z,59.32
2022-08-04T04:24:33.645Z,59.11
2022-08-04T04:27:18.313Z,58.94
2022-08-04T04:30:08.059Z,58.87
2022-08-04T04:33:01.645Z,59.77
2022-08-04T04:35:39.675Z,59.58
2022-08-04T04:38:23.365Z,58.89
2022-08-04T04:41:06.054Z,58.63
2022-08-04T04:44:10.445Z,57.48
2022-08-04T04:46:40.804Z,57.56
2022-08-04T04:49:19.173Z,58.74
2022-08-04T04:51:52.107Z,58.85
2022-08-04T04:54:36.192Z,57.30
2022-08-04T04:57:15.219Z,57.76
2022-08-04T04:59:51.120Z,57.39
2022-08-04T05:02:58.838Z,57.53
2022-08-04T05:05:39.215Z,58.21
2022-08-04T05:08:50.005Z,58.41
2022-08-04T05:11:49.137Z,58.11
2022-08-04T05:14:35.877Z,57.53
2022-08-04T05:17:17.748Z,57.75
2022-08-04T05:19:57.426Z,58.05
2022-08-04T05:22:33.327Z,58.13
2022-08-04T05:25:08.081Z,58.34
2022-08-04T05:27:41.791Z,58.46
2022-08-04T05:30:14.512Z,58.83
2022-08-04T05:32:50.275Z,58.44
2022-08-04T05:35:56.307Z,59.15
2022-08-04T05:38:24.104Z,58.88
2022-08-04T05:40:54.388Z,58.39
2022-08-04T05:43:25.401Z,58.16
2022-08-04T05:45:58.215Z,57.61
2022-08-04T05:48:28.321Z,57.69
2022-08-04T05:51:01.060Z,57.53
2022-08-04T05:53:33.517Z,57.72
2022-08-04T06:51:24.796Z,55.63
2022-08-04T06:53:44.354Z,55.54
2022-08-04T06:56:15.397Z,56.02
2022-08-04T06:58:45.739Z,56.23
2022-08-04T07:01:16.006Z,55.18
2022-08-04T07:03:46.270Z,55.66
2022-08-04T07:06:25.681Z,55.62
2022-08-04T07:08:56.842Z,55.81
